createdAt,value
2023-03-11T00:00:48.581Z,98588.22
2023-03-11T00:02:53.051Z,98599.19
2023-03-11T00:04:54.469Z,98596.00
2023-03-11T00:06:55.942Z,98614.59
2023-03-11T00:08:57.362Z,98616.03
2023-03-11T00:11:00.540Z,98622.38
2023-03-11T00:13:03.244Z,98621.13
2023-03-11T00:15:05.140Z,98629.03
2023-03-11T00:17:06.589Z,98634.22
2023-03-11T00:19:09.281Z,98639.78
2023-03-11T00:21:17.983Z,98639.34
2023-03-11T00:23:19.550Z,98646.00
2023-03-11T00:25:23.150Z,98641.59
2023-03-11T00:27:24.705Z,98651.63
2023-03-11T00:29:26.146Z,98661.03
2023-03-11T00:31:27.696Z,98669.41
2023-03-11T00:33:29.232Z,98665.34
2023-03-11T00:35:32.716Z,98672.38
2023-03-11T00:37:34.483Z,98670.38
2023-03-11T00:39:35.898Z,98674.75
2023-03-11T00:41:37.514Z,98672.53
2023-03-11T00:43:38.896Z,98689.81
2023-03-11T00:45:40.399Z,98683.53
2023-03-11T00:47:42.006Z,98693.59
2023-03-11T00:49:43.513Z,98690.13
2023-03-11T00:51:44.950Z,98698.97
2023-03-11T00:53:46.386Z,98699.78
2023-03-11T00:55:47.890Z,98706.69
2023-03-11T00:57:52.673Z,98703.91
2023-03-11T00:59:54.452Z,98698.16
2023-03-11T01:01:55.896Z,98709.09
2023-03-11T01:03:57.301Z,98705.16
2023-03-11T01:05:58.704Z,98709.38
2023-03-11T01:08:00.906Z,98714.13
2023-03-11T01:10:02.412Z,98717.63
2023-03-11T01:12:05.519Z,98719.06
2023-03-11T01:14:06.970Z,98721.66
2023-03-11T01:16:09.318Z,98723.47
2023-03-11T01:18:11.010Z,98724.47
2023-03-11T01:20:12.945Z,98734.41
2023-03-11T01:22:14.905Z,98735.84
2023-03-11T01:24:16.356Z,98739.25
2023-03-11T01:26:17.850Z,98748.47
2023-03-11T01:28:19.307Z,98749.94
2023-03-11T01:30:23.834Z,98749.94
2023-03-11T01:32:25.374Z,98759.69
2023-03-11T01:34:26.812Z,98757.72
2023-03-11T01:36:28.244Z,98751.81
2023-03-11T01:38:29.695Z,98764.06
2023-03-11T01:41:00.884Z,98756.09
2023-03-11T01:43:04.241Z,98757.09
2023-03-11T01:45:44.168Z,98753.41
2023-03-11T01:47:45.632Z,98759.31
2023-03-11T01:49:48.807Z,98754.13
2023-03-11T01:51:54.194Z,98754.22
2023-03-11T01:53:57.218Z,98755.81
2023-03-11T01:55:58.805Z,98749.28
2023-03-11T01:58:05.783Z,98745.88
2023-03-11T02:00:10.475Z,98760.84
2023-03-11T02:02:19.682Z,98753.88
2023-03-11T02:04:21.608Z,98752.69
2023-03-11T02:06:24.405Z,98756.47
2023-03-11T02:08:25.988Z,98763.19
2023-03-11T02:10:27.801Z,98758.44
2023-03-11T02:12:34.472Z,98767.84
2023-03-11T02:14:37.641Z,98763.25
2023-03-11T02:16:39.083Z,98770.06
2023-03-11T02:18:42.593Z,98763.19
2023-03-11T02:20:55.449Z,98769.47
2023-03-11T02:22:57.668Z,98760.84
2023-03-11T02:25:05.328Z,98761.03
2023-03-11T02:27:12.832Z,98757.81
2023-03-11T02:29:14.747Z,98763.81
2023-03-11T02:31:16.904Z,98763.72
2023-03-11T02:33:18.773Z,98773.66
2023-03-11T02:35:20.765Z,98771.69
2023-03-11T02:37:22.165Z,98771.06
2023-03-11T02:39:37.960Z,98773.41
2023-03-11T02:41:44.355Z,98769.91
2023-03-11T02:43:46.770Z,98775.56
2023-03-11T02:45:48.567Z,98773.13
2023-03-11T02:47:51.870Z,98776.09
2023-03-11T02:49:56.305Z,98780.31
2023-03-11T02:51:57.762Z,98781.81
2023-03-11T02:54:03.936Z,98780.84
2023-03-11T02:56:05.627Z,98787.75
2023-03-11T02:58:07.443Z,98784.78
2023-03-11T03:00:18.993Z,98797.16
2023-03-11T03:02:20.664Z,98790.63
2023-03-11T03:04:22.421Z,98796.59
2023-03-11T03:06:25.086Z,98794.81
2023-03-11T03:08:26.623Z,98796.44
2023-03-11T03:10:28.201Z,98799.84
2023-03-11T03:12:35.838Z,98807.00
2023-03-11T03:14:37.226Z,98811.88
2023-03-11T03:16:38.738Z,98814.09
2023-03-11T03:18:40.491Z,98811.88
2023-03-11T03:20:41.944Z,98816.25
2023-03-11T03:22:43.647Z,98828.88
2023-03-11T03:24:45.182Z,98827.09
2023-03-11T03:26:46.653Z,98818.66
2023-03-11T03:28:48.312Z,98819.09
2023-03-11T03:30:49.721Z,98827.72
2023-03-11T03:32:51.200Z,98831.13
2023-03-11T03:34:58.212Z,98829.69
2023-03-11T03:36:59.665Z,98830.97
2023-03-11T03:39:01.529Z,98829.78
2023-03-11T03:41:03.632Z,98833.19
2023-03-11T03:43:05.748Z,98831.59
2023-03-11T03:45:08.592Z,98838.94
2023-03-11T03:47:10.104Z,98839.38
2023-03-11T03:49:11.686Z,98841.97
2023-03-11T03:51:14.456Z,98844.75
2023-03-11T03:53:15.845Z,98841.81
2023-03-11T03:55:17.405Z,98846.19
2023-03-11T03:57:18.924Z,98854.16
2023-03-11T03:59:20.310Z,98849.16
2023-03-11T04:01:22.004Z,98861.34
2023-03-11T04:03:23.845Z,98853.56
2023-03-11T04:05:26.742Z,98861.34
2023-03-11T04:07:28.224Z,98856.50
2023-03-11T04:09:29.685Z,98858.66
2023-03-11T04:11:32.312Z,98863.84
2023-03-11T04:13:33.759Z,98869.94
2023-03-11T04:15:37.230Z,98868.94
2023-03-11T04:17:58.894Z,98868.59
2023-03-11T04:20:00.335Z,98872.63
2023-03-11T04:22:01.742Z,98875.22
2023-03-11T04:24:03.313Z,98879.16
2023-03-11T04:26:04.813Z,98878.53
2023-03-11T04:28:06.284Z,98881.47
2023-03-11T04:30:08.838Z,98885.53
2023-03-11T04:32:10.285Z,98870.75
2023-03-11T04:34:11.759Z,98882.47
2023-03-11T04:36:13.206Z,98884.25
2023-03-11T04:38:19.455Z,98879.56
2023-03-11T04:40:20.991Z,98893.03
2023-03-11T04:42:22.541Z,98897.88
2023-03-11T04:44:24.045Z,98901.06
2023-03-11T04:46:25.510Z,98902.00
2023-03-11T04:48:27.591Z,98901.47
2023-03-11T04:50:29.025Z,98911.22
2023-03-11T04:52:30.530Z,98915.25
2023-03-11T04:54:32.025Z,98913.88
2023-03-11T04:56:33.869Z,98920.84
2023-03-11T04:58:35.276Z,98926.50
2023-03-11T05:00:36.722Z,98926.88
2023-03-11T05:02:39.749Z,98929.13
2023-03-11T05:04:41.243Z,98927.53
2023-03-11T05:06:42.711Z,98928.13
2023-03-11T05:08:44.270Z,98927.53
2023-03-11T05:10:45.790Z,98927.69
2023-03-11T05:12:47.227Z,98928.53
2023-03-11T05:14:48.682Z,98930.34
2023-03-11T05:16:50.111Z,98937.16
2023-03-11T05:18:51.594Z,98934.19
2023-03-11T05:20:53.470Z,98935.72
2023-03-11T05:22:54.927Z,98936.34
2023-03-11T05:24:56.347Z,98942.84
2023-03-11T05:26:58.376Z,98944.47
2023-03-11T05:28:59.767Z,98943.09
2023-03-11T05:31:01.294Z,98944.53
2023-03-11T05:33:02.985Z,98956.72
2023-03-11T05:35:04.821Z,98955.47
2023-03-11T05:37:06.407Z,98958.69
2023-03-11T05:39:08.383Z,98952.50
2023-03-11T05:41:09.830Z,98959.16
2023-03-11T05:43:11.280Z,98962.41
2023-03-11T05:45:13.511Z,98962.88
2023-03-11T05:47:16.872Z,98959.00
2023-03-11T05:49:18.332Z,98968.38
2023-03-11T05:51:19.834Z,98967.25
2023-03-11T05:53:21.235Z,98962.03
2023-03-11T05:55:22.699Z,98970.97
2023-03-11T05:57:24.303Z,98970.97
2023-03-11T05:59:25.794Z,98977.97
2023-03-11T06:01:27.251Z,98983.97
2023-03-11T06:03:28.670Z,98981.56
2023-03-11T06:05:30.145Z,98982.03
2023-03-11T06:07:31.614Z,98987.69
2023-03-11T06:09:36.801Z,98986.53
2023-03-11T06:11:38.194Z,98988.16
2023-03-11T06:13:39.760Z,98982.13
2023-03-11T06:15:41.206Z,98983.75
2023-03-11T06:17:42.683Z,98991.91
2023-03-11T06:19:44.137Z,98987.34
2023-03-11T06:21:45.525Z,98991.09
2023-03-11T06:23:47.416Z,98986.41
2023-03-11T06:26:04.207Z,98989.81
2023-03-11T06:28:05.946Z,99001.38
2023-03-11T06:30:08.034Z,98996.16
2023-03-11T06:32:09.726Z,98996.31
2023-03-11T06:34:12.052Z,98998.13
2023-03-11T06:36:15.427Z,99006.72
2023-03-11T06:38:16.854Z,99006.25
2023-03-11T06:40:18.733Z,99007.22
2023-03-11T06:42:20.796Z,99008.34
2023-03-11T06:44:22.186Z,99018.19
2023-03-11T06:46:23.916Z,99018.50
2023-03-11T06:48:26.337Z,99019.31
2023-03-11T06:50:28.824Z,99027.94
2023-03-11T06:52:30.253Z,99030.19
2023-03-11T06:54:31.751Z,99035.50
2023-03-11T06:56:33.158Z,99035.34
2023-03-11T06:58:36.878Z,99042.94
2023-03-11T07:00:38.297Z,99048.34
2023-03-11T07:02:39.700Z,99047.53
2023-03-11T07:04:41.145Z,99050.75
2023-03-11T07:06:43.419Z,99052.84
2023-03-11T07:08:47.489Z,99066.47
2023-03-11T07:11:03.658Z,99070.34
2023-03-11T07:13:05.077Z,99069.41
2023-03-11T07:15:07.173Z,99062.38
2023-03-11T07:17:08.737Z,99071.63
2023-03-11T07:19:10.782Z,99077.28
2023-03-11T07:21:15.371Z,99085.75
2023-03-11T07:23:16.780Z,99086.00
2023-03-11T07:25:18.300Z,99094.47
2023-03-11T07:27:19.824Z,99093.19
2023-03-11T07:29:21.257Z,99097.34
2023-03-11T07:31:28.165Z,99104.63
2023-03-11T07:33:29.580Z,99103.66
2023-03-11T07:35:31.220Z,99106.13
2023-03-11T07:37:32.629Z,99108.84
2023-03-11T07:39:34.077Z,99106.50
2023-03-11T07:41:36.535Z,99111.53
2023-03-11T07:43:38.797Z,99117.56
2023-03-11T07:45:40.311Z,99120.63
2023-03-11T07:47:41.753Z,99125.81
2023-03-11T07:49:43.153Z,99128.47
2023-03-11T07:51:44.817Z,99130.72
2023-03-11T07:53:47.307Z,99130.56
2023-03-11T07:55:48.694Z,99145.81
2023-03-11T07:57:51.632Z,99137.81
2023-03-11T07:59:53.079Z,99139.28
2023-03-11T08:01:54.511Z,99145.00
2023-03-11T08:03:56.974Z,99143.69
2023-03-11T08:05:58.621Z,99147.38
2023-03-11T08:08:00.053Z,99149.47
2023-03-11T08:10:01.750Z,99152.88
2023-03-11T08:12:03.312Z,99152.34
2023-03-11T08:14:05.453Z,99161.50
2023-03-11T08:16:08.782Z,99159.63
2023-03-11T08:18:11.142Z,99167.44
2023-03-11T08:20:12.920Z,99166.63
2023-03-11T08:22:14.362Z,99159.47
2023-03-11T08:24:16.130Z,99166.56
2023-03-11T08:26:20.336Z,99177.78
2023-03-11T08:28:21.760Z,99167.84
2023-03-11T08:30:23.585Z,99178.75
2023-03-11T08:32:25.124Z,99178.13
2023-03-11T08:34:27.603Z,99175.13
2023-03-11T08:36:29.999Z,99178.19
2023-03-11T08:38:31.429Z,99182.69
2023-03-11T08:40:32.884Z,99177.13
2023-03-11T08:42:36.210Z,99183.25
2023-03-11T08:44:39.096Z,99181.78
2023-03-11T08:46:40.717Z,99178.41
2023-03-11T08:48:42.185Z,99182.75
2023-03-11T08:50:53.899Z,99180.78
2023-03-11T08:52:56.431Z,99183.41
2023-03-11T08:54:57.898Z,99181.94
2023-03-11T08:57:02.925Z,99185.09
2023-03-11T08:59:04.376Z,99177.22
2023-03-11T09:01:07.254Z,99171.31
2023-03-11T09:03:08.696Z,99174.44
2023-03-11T09:05:10.624Z,99172.81
2023-03-11T09:07:14.172Z,99179.84
2023-03-11T09:09:24.396Z,99183.34
2023-03-11T09:11:26.191Z,99183.91
2023-03-11T09:13:28.056Z,99187.25
2023-03-11T09:15:29.703Z,99196.22
2023-03-11T09:17:31.208Z,99185.34
2023-03-11T09:19:32.613Z,99186.34
2023-03-11T09:21:37.974Z,99180.84
2023-03-11T09:23:42.779Z,99181.59
2023-03-11T09:25:45.329Z,99187.16
2023-03-11T09:27:47.109Z,99183.91
2023-03-11T09:29:48.669Z,99181.75
2023-03-11T09:31:50.112Z,99198.84
2023-03-11T09:33:52.870Z,99191.63
2023-03-11T09:35:54.300Z,99189.00
2023-03-11T09:37:55.914Z,99192.22
2023-03-11T09:39:57.388Z,99189.41
2023-03-11T09:42:10.815Z,99193.31
2023-03-11T09:44:50.420Z,99197.63
2023-03-11T09:47:08.744Z,99190.63
2023-03-11T09:49:22.318Z,99200.19
2023-03-11T09:51:32.395Z,99197.50
2023-03-11T09:53:43.833Z,99201.97
2023-03-11T09:55:54.981Z,99205.44
2023-03-11T09:57:59.260Z,99199.03
2023-03-11T10:00:04.379Z,99213.22
2023-03-11T10:02:06.309Z,99217.75
2023-03-11T10:04:21.147Z,99224.97
2023-03-11T10:06:30.510Z,99216.41
2023-03-11T10:08:50.733Z,99220.78
2023-03-11T10:11:05.403Z,99219.44
2023-03-11T10:13:44.990Z,99216.22
2023-03-11T10:15:49.543Z,99211.78
2023-03-11T10:17:58.105Z,99217.13
2023-03-11T10:20:17.972Z,99216.53
2023-03-11T10:22:31.246Z,99218.41
2023-03-11T10:25:10.331Z,99219.72
2023-03-11T10:27:19.868Z,99222.81
2023-03-11T10:29:29.218Z,99230.25
2023-03-11T10:31:37.254Z,99236.09
2023-03-11T10:34:11.226Z,99234.06
2023-03-11T10:36:24.194Z,99228.75
2023-03-11T10:38:32.363Z,99228.53
2023-03-11T10:40:37.373Z,99228.53
2023-03-11T10:42:39.312Z,99227.13
2023-03-11T10:44:43.096Z,99230.28
2023-03-11T10:46:45.137Z,99229.84
2023-03-11T10:48:46.551Z,99226.66
2023-03-11T10:51:15.859Z,99230.50
2023-03-11T10:53:19.722Z,99240.97
2023-03-11T10:55:21.113Z,99233.78
2023-03-11T10:57:26.239Z,99234.94
2023-03-11T10:59:34.791Z,99243.72
2023-03-11T11:01:36.688Z,99235.53
2023-03-11T11:03:42.288Z,99229.69
2023-03-11T11:05:43.762Z,99236.09
2023-03-11T11:07:46.928Z,99232.56
2023-03-11T11:10:08.872Z,99242.34
2023-03-11T11:12:19.938Z,99255.56
2023-03-11T11:14:22.798Z,99261.09
2023-03-11T11:16:25.021Z,99259.09
2023-03-11T11:18:36.726Z,99260.13
2023-03-11T11:20:40.091Z,99259.81
2023-03-11T11:22:57.467Z,99253.72
2023-03-11T11:24:58.932Z,99246.53
2023-03-11T11:27:05.855Z,99241.56
2023-03-11T11:29:10.315Z,99242.84
2023-03-11T11:31:25.078Z,99246.34
2023-03-11T11:33:30.443Z,99243.16
2023-03-11T11:35:31.888Z,99241.50
2023-03-11T11:37:36.721Z,99229.50
2023-03-11T11:39:51.558Z,99229.38
2023-03-11T11:41:55.606Z,99236.50
2023-03-11T11:44:03.599Z,99233.94
2023-03-11T11:46:12.568Z,99226.78
2023-03-11T11:48:26.903Z,99229.78
2023-03-11T11:50:41.955Z,99224.34
2023-03-11T11:52:56.022Z,99227.03
2023-03-11T11:55:28.226Z,99225.63
2023-03-11T11:57:29.952Z,99218.81
2023-03-11T11:59:31.718Z,99224.25
2023-03-11T12:01:49.486Z,99227.28
2023-03-11T12:04:16.595Z,99221.28
2023-03-11T12:06:29.316Z,99223.88
2023-03-11T12:08:42.760Z,99219.06
2023-03-11T12:10:44.086Z,99220.47
2023-03-11T12:13:05.813Z,99223.88
2023-03-11T12:15:20.850Z,99225.69
2023-03-11T12:17:24.899Z,99222.66
2023-03-11T12:19:40.130Z,99228.66
2023-03-11T12:22:10.749Z,99223.59
2023-03-11T12:24:43.551Z,99221.94
2023-03-11T12:26:48.184Z,99219.34
2023-03-11T12:29:04.771Z,99227.88
2023-03-11T12:31:11.298Z,99228.22
2023-03-11T12:33:18.588Z,99236.72
2023-03-11T12:35:30.219Z,99238.09
2023-03-11T12:37:31.789Z,99230.53
2023-03-11T12:39:34.648Z,99230.97
2023-03-11T12:41:42.800Z,99233.59
2023-03-11T12:43:44.233Z,99230.16
2023-03-11T12:45:55.408Z,99226.47
2023-03-11T12:48:27.664Z,99232.38
2023-03-11T12:50:41.209Z,99233.22
2023-03-11T12:52:53.634Z,99234.34
2023-03-11T12:54:54.990Z,99226.50
2023-03-11T12:57:15.169Z,99236.50
2023-03-11T12:59:44.563Z,99241.94
2023-03-11T13:02:04.848Z,99234.19
2023-03-11T13:04:43.721Z,99244.34
2023-03-11T13:07:04.214Z,99245.16
2023-03-11T13:09:14.532Z,99240.84
2023-03-11T13:11:34.285Z,99240.19
2023-03-11T13:13:38.704Z,99244.13
2023-03-11T13:15:42.668Z,99240.06
2023-03-11T13:18:03.547Z,99248.59
2023-03-11T13:20:43.002Z,99247.31
2023-03-11T13:23:07.677Z,99248.91
2023-03-11T13:25:45.580Z,99246.69
2023-03-11T13:27:51.097Z,99248.31
2023-03-11T13:30:18.715Z,99242.44
2023-03-11T13:32:45.017Z,99243.66
2023-03-11T13:35:10.233Z,99233.72
2023-03-11T13:37:30.245Z,99244.19
2023-03-11T13:39:44.334Z,99231.13
2023-03-11T13:41:46.542Z,99227.53
2023-03-11T13:43:51.233Z,99231.31
2023-03-11T13:46:08.293Z,99227.63
2023-03-11T13:48:22.590Z,99240.78
2023-03-11T13:50:32.264Z,99234.25
2023-03-11T13:52:38.124Z,99236.81
2023-03-11T13:54:45.477Z,99240.66
2023-03-11T13:56:54.001Z,99237.22
2023-03-11T13:59:15.958Z,99235.19
2023-03-11T14:01:18.905Z,99227.72
2023-03-11T14:03:23.818Z,99234.59
2023-03-11T14:05:31.249Z,99236.19
2023-03-11T14:07:35.237Z,99242.47
2023-03-11T14:09:36.745Z,99243.25
2023-03-11T14:11:40.054Z,99242.00
2023-03-11T14:13:51.267Z,99240.63
2023-03-11T14:16:10.029Z,99241.25
2023-03-11T14:18:31.797Z,99243.78
2023-03-11T14:20:33.292Z,99241.06
2023-03-11T14:22:34.957Z,99241.66
2023-03-11T14:24:38.370Z,99237.13
2023-03-11T14:26:42.728Z,99240.03
2023-03-11T14:28:48.042Z,99236.19
2023-03-11T14:31:00.880Z,99235.78
2023-03-11T14:33:03.639Z,99238.03
2023-03-11T14:35:20.332Z,99232.19
2023-03-11T14:37:32.215Z,99245.25
2023-03-11T14:39:38.404Z,99239.78
2023-03-11T14:41:40.088Z,99239.88
2023-03-11T14:43:45.834Z,99233.66
2023-03-11T14:45:49.877Z,99234.50
2023-03-11T14:48:08.520Z,99233.41
2023-03-11T14:50:16.430Z,99234.84
2023-03-11T14:52:46.045Z,99243.97
2023-03-11T14:54:49.697Z,99244.88
2023-03-11T14:57:04.856Z,99238.03
2023-03-11T14:59:18.529Z,99242.59
2023-03-11T15:01:30.874Z,99245.22
2023-03-11T15:03:38.230Z,99251.13
2023-03-11T15:05:47.297Z,99253.66
2023-03-11T15:07:51.076Z,99258.81
2023-03-11T15:09:52.786Z,99253.63
2023-03-11T15:11:58.187Z,99255.44
2023-03-11T15:14:19.222Z,99253.63
2023-03-11T15:16:35.499Z,99254.56
2023-03-11T15:18:37.916Z,99258.63
2023-03-11T15:20:39.425Z,99258.25
2023-03-11T15:22:41.206Z,99251.50
2023-03-11T15:24:42.740Z,99253.94
2023-03-11T15:27:12.890Z,99260.72
2023-03-11T15:29:17.093Z,99268.91
2023-03-11T15:31:21.483Z,99265.81
2023-03-11T15:33:32.462Z,99270.38
2023-03-11T15:35:46.818Z,99264.38
2023-03-11T15:37:50.372Z,99273.47
2023-03-11T15:39:53.115Z,99272.41
2023-03-11T15:41:59.346Z,99266.31
2023-03-11T15:44:03.060Z,99267.25
2023-03-11T15:46:04.658Z,99271.75
2023-03-11T15:48:06.195Z,99267.38
2023-03-11T15:50:24.021Z,99269.88
2023-03-11T15:52:26.847Z,99268.84
2023-03-11T15:54:28.885Z,99268.06
2023-03-11T15:56:33.080Z,99267.25
2023-03-11T15:58:36.833Z,99273.31
2023-03-11T16:00:41.776Z,99275.56
2023-03-11T16:02:43.229Z,99268.13
2023-03-11T16:04:44.766Z,99280.06
2023-03-11T16:06:56.505Z,99273.31
2023-03-11T16:09:05.359Z,99276.88
2023-03-11T16:11:11.616Z,99279.00
2023-03-11T16:13:15.046Z,99280.38
2023-03-11T16:15:19.484Z,99283.88
2023-03-11T16:17:23.336Z,99286.09
2023-03-11T16:19:24.993Z,99290.63
2023-03-11T16:21:34.905Z,99292.28
2023-03-11T16:23:50.659Z,99285.44
2023-03-11T16:26:02.176Z,99290.03
2023-03-11T16:28:04.291Z,99285.03
2023-03-11T16:30:06.385Z,99292.44
2023-03-11T16:32:08.694Z,99286.19
2023-03-11T16:34:10.245Z,99288.22
2023-03-11T16:36:11.914Z,99279.75
2023-03-11T16:38:14.139Z,99282.00
2023-03-11T16:40:18.709Z,99285.06
2023-03-11T16:42:23.968Z,99289.53
2023-03-11T16:44:25.360Z,99287.66
2023-03-11T16:46:27.834Z,99291.91
2023-03-11T16:48:29.315Z,99293.91
2023-03-11T16:50:31.967Z,99298.13
2023-03-11T16:52:33.605Z,99304.28
2023-03-11T16:54:35.473Z,99302.53
2023-03-11T16:56:37.331Z,99303.28
2023-03-11T16:58:39.807Z,99310.13
2023-03-11T17:00:42.173Z,99310.06
2023-03-11T17:02:44.575Z,99311.84
2023-03-11T17:04:46.055Z,99306.50
2023-03-11T17:06:47.506Z,99304.00
2023-03-11T17:08:49.986Z,99309.88
2023-03-11T17:10:52.704Z,99310.25
2023-03-11T17:12:54.761Z,99307.63
2023-03-11T17:14:56.240Z,99305.53
2023-03-11T17:16:58.260Z,99312.06
2023-03-11T17:19:01.205Z,99308.72
2023-03-11T17:21:10.765Z,99316.16
2023-03-11T17:23:12.231Z,99310.75
2023-03-11T17:25:13.753Z,99325.50
2023-03-11T17:27:15.198Z,99326.13
2023-03-11T17:29:16.607Z,99319.66
2023-03-11T17:31:18.836Z,99323.75
2023-03-11T17:33:20.292Z,99318.81
2023-03-11T17:35:21.760Z,99324.16
2023-03-11T17:37:23.278Z,99335.53
2023-03-11T17:39:24.675Z,99339.41
2023-03-11T17:41:26.133Z,99333.22
2023-03-11T17:43:27.627Z,99335.72
2023-03-11T17:45:29.342Z,99339.97
2023-03-11T17:47:33.123Z,99339.16
2023-03-11T17:49:34.659Z,99344.94
2023-03-11T17:51:36.154Z,99340.34
2023-03-11T17:53:39.353Z,99344.66
2023-03-11T17:55:40.932Z,99347.16
2023-03-11T17:57:45.363Z,99345.25
2023-03-11T17:59:49.934Z,99352.34
2023-03-11T18:01:51.564Z,99355.69
2023-03-11T18:03:53.312Z,99359.63
2023-03-11T18:06:00.150Z,99361.81
2023-03-11T18:08:01.608Z,99365.59
2023-03-11T18:10:03.063Z,99356.22
2023-03-11T18:12:06.573Z,99352.06
2023-03-11T18:14:08.019Z,99363.00
2023-03-11T18:16:12.979Z,99361.06
2023-03-11T18:18:14.438Z,99358.94
2023-03-11T18:20:16.542Z,99357.38
2023-03-11T18:22:18.015Z,99360.22
2023-03-11T18:24:19.535Z,99361.88
2023-03-11T18:26:22.267Z,99366.16
2023-03-11T18:28:23.744Z,99364.88
2023-03-11T18:30:25.504Z,99368.44
2023-03-11T18:32:26.978Z,99359.69
2023-03-11T18:34:28.427Z,99360.41
2023-03-11T18:36:36.075Z,99358.28
2023-03-11T18:38:37.546Z,99362.56
2023-03-11T18:40:39.027Z,99365.31
2023-03-11T18:42:40.488Z,99367.78
2023-03-11T18:44:42.314Z,99366.97
2023-03-11T18:46:43.852Z,99368.94
2023-03-11T18:48:45.419Z,99370.59
2023-03-11T18:50:54.441Z,99362.47
2023-03-11T18:52:55.867Z,99360.53
2023-03-11T18:54:57.307Z,99361.84
2023-03-11T18:56:58.775Z,99361.69
2023-03-11T18:59:00.730Z,99362.84
2023-03-11T19:01:12.366Z,99365.16
2023-03-11T19:03:14.280Z,99364.81
2023-03-11T19:05:15.894Z,99367.44
2023-03-11T19:07:17.568Z,99367.59
2023-03-11T19:09:19.091Z,99381.94
2023-03-11T19:11:22.669Z,99381.25
2023-03-11T19:13:24.640Z,99391.34
2023-03-11T19:15:27.922Z,99386.81
2023-03-11T19:17:29.378Z,99383.25
2023-03-11T19:19:32.755Z,99385.69
2023-03-11T19:21:34.244Z,99386.84
2023-03-11T19:23:35.665Z,99385.69
2023-03-11T19:25:37.244Z,99381.47
2023-03-11T19:27:40.160Z,99377.56
2023-03-11T19:29:41.594Z,99380.50
2023-03-11T19:31:45.816Z,99382.94
2023-03-11T19:33:50.039Z,99388.28
2023-03-11T19:35:53.401Z,99392.03
2023-03-11T19:37:57.375Z,99385.88
2023-03-11T19:39:58.944Z,99382.44
2023-03-11T19:42:00.554Z,99387.34
2023-03-11T19:44:04.004Z,99398.03
2023-03-11T19:46:07.476Z,99397.41
2023-03-11T19:48:09.544Z,99400.31
2023-03-11T19:50:11.863Z,99394.63
2023-03-11T19:52:13.669Z,99397.38
2023-03-11T19:54:16.256Z,99397.72
2023-03-11T19:56:18.100Z,99395.59
2023-03-11T19:58:20.257Z,99399.19
2023-03-11T20:00:22.176Z,99395.91
2023-03-11T20:02:23.689Z,99401.91
2023-03-11T20:04:25.380Z,99402.91
2023-03-11T20:06:26.977Z,99408.25
2023-03-11T20:08:30.233Z,99411.16
2023-03-11T20:10:31.980Z,99399.97
2023-03-11T20:12:34.372Z,99401.28
2023-03-11T20:14:42.131Z,99405.50
2023-03-11T20:16:43.697Z,99402.22
2023-03-11T20:18:47.964Z,99397.72
2023-03-11T20:20:49.365Z,99401.28
2023-03-11T20:22:50.911Z,99399.97
2023-03-11T20:24:52.354Z,99404.84
2023-03-11T20:26:53.881Z,99398.50
2023-03-11T20:28:56.402Z,99399.66
2023-03-11T20:30:57.897Z,99402.06
2023-03-11T20:32:59.559Z,99403.56
2023-03-11T20:35:01.162Z,99408.25
2023-03-11T20:37:02.636Z,99400.63
2023-03-11T20:39:07.873Z,99389.28
2023-03-11T20:41:11.020Z,99391.69
2023-03-11T20:43:12.543Z,99399.34
2023-03-11T20:45:16.289Z,99399.50
2023-03-11T20:47:17.876Z,99391.56
2023-03-11T20:49:19.396Z,99406.16
2023-03-11T20:51:23.119Z,99409.75
2023-03-11T20:53:26.132Z,99416.53
2023-03-11T20:55:27.690Z,99404.22
2023-03-11T20:57:29.639Z,99409.09
2023-03-11T20:59:31.201Z,99397.88
2023-03-11T21:01:33.984Z,99401.97
2023-03-11T21:03:35.627Z,99407.94
2023-03-11T21:05:38.317Z,99409.56
2023-03-11T21:07:40.319Z,99411.34
2023-03-11T21:09:41.832Z,99406.16
2023-03-11T21:11:43.338Z,99408.13
2023-03-11T21:13:45.138Z,99410.72
2023-03-11T21:15:46.624Z,99416.25
2023-03-11T21:17:48.128Z,99410.88
2023-03-11T21:19:49.640Z,99413.66
2023-03-11T21:21:51.295Z,99405.03
2023-03-11T21:23:52.912Z,99413.78
2023-03-11T21:26:00.873Z,99415.25
2023-03-11T21:28:02.326Z,99415.25
2023-03-11T21:30:04.257Z,99407.97
2023-03-11T21:32:06.249Z,99412.47
2023-03-11T21:34:11.664Z,99409.06
2023-03-11T21:36:15.159Z,99410.22
2023-03-11T21:38:17.598Z,99411.69
2023-03-11T21:40:19.473Z,99403.53
2023-03-11T21:42:21.409Z,99403.19
2023-03-11T21:44:22.889Z,99412.13
2023-03-11T21:46:29.102Z,99410.81
2023-03-11T21:48:31.546Z,99406.91
2023-03-11T21:50:33.369Z,99407.41
2023-03-11T21:52:34.842Z,99402.50
2023-03-11T21:54:36.594Z,99402.81
2023-03-11T21:56:39.174Z,99394.53
2023-03-11T21:58:41.474Z,99402.50
2023-03-11T22:00:43.414Z,99394.72
2023-03-11T22:02:45.081Z,99395.00
2023-03-11T22:04:46.698Z,99399.56
2023-03-11T22:06:48.203Z,99399.72
2023-03-11T22:08:49.994Z,99398.91
2023-03-11T22:10:51.917Z,99400.69
2023-03-11T22:12:53.452Z,99400.69
2023-03-11T22:14:54.888Z,99397.44
2023-03-11T22:16:56.483Z,99397.28
2023-03-11T22:18:58.193Z,99403.13
2023-03-11T22:21:00.174Z,99395.19
2023-03-11T22:23:02.171Z,99406.38
2023-03-11T22:25:04.746Z,99406.38
2023-03-11T22:27:06.405Z,99398.59
2023-03-11T22:29:09.031Z,99397.94
2023-03-11T22:31:13.336Z,99398.44
2023-03-11T22:33:14.834Z,99401.69
2023-03-11T22:35:17.235Z,99403.47
2023-03-11T22:37:18.696Z,99404.59
2023-03-11T22:39:20.137Z,99405.41
2023-03-11T22:41:21.577Z,99404.28
2023-03-11T22:43:23.078Z,99401.69
2023-03-11T22:45:24.649Z,99408.84
2023-03-11T22:47:26.149Z,99408.38
2023-03-11T22:49:27.593Z,99412.59
2023-03-11T22:51:29.046Z,99417.78
2023-03-11T22:53:30.501Z,99411.47
2023-03-11T22:55:31.942Z,99418.28
2023-03-11T22:57:38.540Z,99413.88
2023-03-11T22:59:40.024Z,99410.19
2023-03-11T23:01:41.464Z,99405.16
2023-03-11T23:03:43.610Z,99412.94
2023-03-11T23:05:46.424Z,99413.91
2023-03-11T23:07:48.148Z,99410.69
2023-03-11T23:09:49.629Z,99406.97
2023-03-11T23:11:52.624Z,99415.38
2023-03-11T23:13:54.091Z,99416.38
2023-03-11T23:15:55.513Z,99413.59
2023-03-11T23:17:56.909Z,99411.50
2023-03-11T23:19:58.395Z,99413.94
2023-03-11T23:21:59.835Z,99415.06
2023-03-11T23:24:03.120Z,99411.34
2023-03-11T23:26:08.616Z,99411.34
2023-03-11T23:28:10.066Z,99410.34
2023-03-11T23:30:14.195Z,99416.22
2023-03-11T23:32:15.642Z,99408.25
2023-03-11T23:34:17.051Z,99411.53
2023-03-11T23:36:20.667Z,99415.75
2023-03-11T23:38:22.065Z,99411.53
2023-03-11T23:40:23.750Z,99407.78
2023-03-11T23:42:26.412Z,99406.81
2023-03-11T23:44:28.001Z,99410.22
2023-03-11T23:46:29.511Z,99408.44
2023-03-11T23:48:31.081Z,99407.63
2023-03-11T23:50:32.634Z,99403.88
2023-03-11T23:52:34.661Z,99413.31
2023-03-11T23:54:36.096Z,99403.75
2023-03-11T23:56:37.489Z,99397.53
2023-03-11T23:58:39.001Z,99399.34
